sensor_id;sensor_type;location;lat;lon;timestamp;temperature;humidity
17807;DHT22;9027;48.938;9.182;2023-02-26T00:00:39;2.60;99.90
17807;DHT22;9027;48.938;9.182;2023-02-26T00:02:11;2.60;99.90
17807;DHT22;9027;48.938;9.182;2023-02-26T00:03:43;2.60;99.90
17807;DHT22;9027;48.938;9.182;2023-02-26T00:05:18;2.60;99.90
17807;DHT22;9027;48.938;9.182;2023-02-26T00:06:50;2.70;99.90
17807;DHT22;9027;48.938;9.182;2023-02-26T00:08:25;2.80;99.90
17807;DHT22;9027;48.938;9.182;2023-02-26T00:09:57;2.70;99.90
17807;DHT22;9027;48.938;9.182;2023-02-26T00:11:32;2.70;99.90
17807;DHT22;9027;48.938;9.182;2023-02-26T00:13:04;2.50;99.90
17807;DHT22;9027;48.938;9.182;2023-02-26T00:14:36;2.40;99.90
17807;DHT22;9027;48.938;9.182;2023-02-26T00:16:21;2.30;99.90
17807;DHT22;9027;48.938;9.182;2023-02-26T00:17:58;2.20;99.90
17807;DHT22;9027;48.938;9.182;2023-02-26T00:19:33;2.20;99.90
17807;DHT22;9027;48.938;9.182;2023-02-26T00:21:04;2.20;99.90
17807;DHT22;9027;48.938;9.182;2023-02-26T00:22:37;2.30;99.90
17807;DHT22;9027;48.938;9.182;2023-02-26T00:24:08;2.30;99.90
17807;DHT22;9027;48.938;9.182;2023-02-26T00:25:40;2.20;99.90
17807;DHT22;9027;48.938;9.182;2023-02-26T00:27:13;2.30;99.90
17807;DHT22;9027;48.938;9.182;2023-02-26T00:28:46;2.30;99.90
17807;DHT22;9027;48.938;9.182;2023-02-26T00:30:20;2.20;99.90
17807;DHT22;9027;48.938;9.182;2023-02-26T00:31:52;2.20;99.90
17807;DHT22;9027;48.938;9.182;2023-02-26T00:33:24;2.30;99.90
17807;DHT22;9027;48.938;9.182;2023-02-26T00:34:56;2.20;99.90
17807;DHT22;9027;48.938;9.182;2023-02-26T00:36:34;2.20;99.90
17807;DHT22;9027;48.938;9.182;2023-02-26T00:38:11;2.30;99.90
17807;DHT22;9027;48.938;9.182;2023-02-26T00:39:57;2.10;99.90
17807;DHT22;9027;48.938;9.182;2023-02-26T00:41:32;2.00;99.90
17807;DHT22;9027;48.938;9.182;2023-02-26T00:43:09;2.00;99.90
17807;DHT22;9027;48.938;9.182;2023-02-26T00:44:44;2.10;99.90
17807;DHT22;9027;48.938;9.182;2023-02-26T00:46:21;2.00;99.90
17807;DHT22;9027;48.938;9.182;2023-02-26T00:48:03;2.00;99.90
17807;DHT22;9027;48.938;9.182;2023-02-26T00:49:50;2.00;99.90
17807;DHT22;9027;48.938;9.182;2023-02-26T00:51:30;1.90;99.90
17807;DHT22;9027;48.938;9.182;2023-02-26T00:53:09;1.90;99.90
17807;DHT22;9027;48.938;9.182;2023-02-26T00:54:43;1.80;99.90
17807;DHT22;9027;48.938;9.182;2023-02-26T00:56:18;1.90;99.90
17807;DHT22;9027;48.938;9.182;2023-02-26T00:57:50;1.80;99.90
17807;DHT22;9027;48.938;9.182;2023-02-26T00:59:23;1.90;99.90
17807;DHT22;9027;48.938;9.182;2023-02-26T01:00:55;1.90;99.90
17807;DHT22;9027;48.938;9.182;2023-02-26T01:02:27;1.90;99.90
17807;DHT22;9027;48.938;9.182;2023-02-26T01:03:59;1.90;99.90
17807;DHT22;9027;48.938;9.182;2023-02-26T01:05:32;1.90;99.90
17807;DHT22;9027;48.938;9.182;2023-02-26T01:07:04;1.90;99.90
17807;DHT22;9027;48.938;9.182;2023-02-26T01:08:42;1.80;99.90
17807;DHT22;9027;48.938;9.182;2023-02-26T01:10:16;1.80;99.90
17807;DHT22;9027;48.938;9.182;2023-02-26T01:11:48;1.80;99.90
17807;DHT22;9027;48.938;9.182;2023-02-26T01:13:21;1.80;99.90
17807;DHT22;9027;48.938;9.182;2023-02-26T01:14:55;1.70;99.90
17807;DHT22;9027;48.938;9.182;2023-02-26T01:16:29;1.70;99.90
17807;DHT22;9027;48.938;9.182;2023-02-26T01:18:12;1.80;99.90
17807;DHT22;9027;48.938;9.182;2023-02-26T01:19:49;1.80;99.90
17807;DHT22;9027;48.938;9.182;2023-02-26T01:21:28;1.80;99.90
17807;DHT22;9027;48.938;9.182;2023-02-26T01:23:03;1.70;99.90
17807;DHT22;9027;48.938;9.182;2023-02-26T01:24:35;1.70;99.90
17807;DHT22;9027;48.938;9.182;2023-02-26T01:26:13;1.60;99.90
17807;DHT22;9027;48.938;9.182;2023-02-26T01:27:46;1.60;99.90
17807;DHT22;9027;48.938;9.182;2023-02-26T01:29:19;1.70;99.90
17807;DHT22;9027;48.938;9.182;2023-02-26T01:30:53;1.60;99.90
17807;DHT22;9027;48.938;9.182;2023-02-26T01:32:32;1.60;99.90
17807;DHT22;9027;48.938;9.182;2023-02-26T01:34:14;1.40;99.90
17807;DHT22;9027;48.938;9.182;2023-02-26T01:35:49;1.50;99.90
17807;DHT22;9027;48.938;9.182;2023-02-26T01:37:26;1.40;99.90
17807;DHT22;9027;48.938;9.182;2023-02-26T01:39:04;1.50;99.90
17807;DHT22;9027;48.938;9.182;2023-02-26T01:41:02;1.50;99.90
17807;DHT22;9027;48.938;9.182;2023-02-26T01:42:42;1.50;99.90
17807;DHT22;9027;48.938;9.182;2023-02-26T01:44:21;1.60;99.90
17807;DHT22;9027;48.938;9.182;2023-02-26T01:46:02;1.60;99.90
17807;DHT22;9027;48.938;9.182;2023-02-26T01:47:39;1.70;99.90
17807;DHT22;9027;48.938;9.182;2023-02-26T01:49:16;1.60;99.90
17807;DHT22;9027;48.938;9.182;2023-02-26T01:50:49;1.40;99.90
17807;DHT22;9027;48.938;9.182;2023-02-26T01:54:36;1.40;99.90
17807;DHT22;9027;48.938;9.182;2023-02-26T01:56:14;1.50;99.90
17807;DHT22;9027;48.938;9.182;2023-02-26T01:57:47;1.60;99.90
17807;DHT22;9027;48.938;9.182;2023-02-26T01:59:19;1.60;99.90
17807;DHT22;9027;48.938;9.182;2023-02-26T02:00:55;1.60;99.90
17807;DHT22;9027;48.938;9.182;2023-02-26T02:02:28;1.70;99.90
17807;DHT22;9027;48.938;9.182;2023-02-26T02:04:00;1.60;99.90
17807;DHT22;9027;48.938;9.182;2023-02-26T02:05:34;1.60;99.90
17807;DHT22;9027;48.938;9.182;2023-02-26T02:07:11;1.70;99.90
17807;DHT22;9027;48.938;9.182;2023-02-26T02:08:43;1.60;99.90
17807;DHT22;9027;48.938;9.182;2023-02-26T02:10:15;1.60;99.90
17807;DHT22;9027;48.938;9.182;2023-02-26T02:11:59;1.70;99.90
17807;DHT22;9027;48.938;9.182;2023-02-26T02:13:40;1.70;99.90
17807;DHT22;9027;48.938;9.182;2023-02-26T02:15:16;1.70;99.90
17807;DHT22;9027;48.938;9.182;2023-02-26T02:16:58;1.60;99.90
17807;DHT22;9027;48.938;9.182;2023-02-26T02:18:37;1.60;99.90
17807;DHT22;9027;48.938;9.182;2023-02-26T02:22:26;1.60;99.90
17807;DHT22;9027;48.938;9.182;2023-02-26T02:24:04;1.50;99.90
17807;DHT22;9027;48.938;9.182;2023-02-26T02:27:55;1.40;99.90
17807;DHT22;9027;48.938;9.182;2023-02-26T02:29:49;1.40;99.90
17807;DHT22;9027;48.938;9.182;2023-02-26T02:31:28;1.40;99.90
17807;DHT22;9027;48.938;9.182;2023-02-26T02:33:05;1.50;99.90
17807;DHT22;9027;48.938;9.182;2023-02-26T02:34:46;1.40;99.90
17807;DHT22;9027;48.938;9.182;2023-02-26T02:36:21;1.30;99.90
17807;DHT22;9027;48.938;9.182;2023-02-26T02:37:57;1.40;99.90
17807;DHT22;9027;48.938;9.182;2023-02-26T02:39:32;1.40;99.90
17807;DHT22;9027;48.938;9.182;2023-02-26T02:41:08;1.40;99.90
17807;DHT22;9027;48.938;9.182;2023-02-26T02:42:45;1.30;99.90
17807;DHT22;9027;48.938;9.182;2023-02-26T02:44:20;1.30;99.90
17807;DHT22;9027;48.938;9.182;2023-02-26T02:45:58;1.30;99.90
17807;DHT22;9027;48.938;9.182;2023-02-26T02:47:34;1.30;99.90
17807;DHT22;9027;48.938;9.182;2023-02-26T02:49:10;1.30;99.90
17807;DHT22;9027;48.938;9.182;2023-02-26T02:50:46;1.30;99.90
17807;DHT22;9027;48.938;9.182;2023-02-26T02:52:24;1.30;99.90
17807;DHT22;9027;48.938;9.182;2023-02-26T02:54:02;1.30;99.90
17807;DHT22;9027;48.938;9.182;2023-02-26T02:55:37;1.30;99.90
17807;DHT22;9027;48.938;9.182;2023-02-26T02:57:14;1.20;99.90
17807;DHT22;9027;48.938;9.182;2023-02-26T02:58:51;1.10;99.90
17807;DHT22;9027;48.938;9.182;2023-02-26T03:00:27;1.10;99.90
17807;DHT22;9027;48.938;9.182;2023-02-26T03:02:03;1.00;99.90
17807;DHT22;9027;48.938;9.182;2023-02-26T03:03:43;1.10;99.90
17807;DHT22;9027;48.938;9.182;2023-02-26T03:05:16;1.10;99.90
17807;DHT22;9027;48.938;9.182;2023-02-26T03:06:47;1.20;99.90
17807;DHT22;9027;48.938;9.182;2023-02-26T03:08:25;1.20;99.90
17807;DHT22;9027;48.938;9.182;2023-02-26T03:09:58;1.30;99.90
17807;DHT22;9027;48.938;9.182;2023-02-26T03:11:29;1.30;99.90
17807;DHT22;9027;48.938;9.182;2023-02-26T03:13:01;1.30;99.90
17807;DHT22;9027;48.938;9.182;2023-02-26T03:14:32;1.20;99.90
17807;DHT22;9027;48.938;9.182;2023-02-26T03:16:22;1.30;99.90
17807;DHT22;9027;48.938;9.182;2023-02-26T03:18:03;1.30;99.90
17807;DHT22;9027;48.938;9.182;2023-02-26T03:19:47;1.30;99.90
17807;DHT22;9027;48.938;9.182;2023-02-26T03:21:28;1.30;99.90
17807;DHT22;9027;48.938;9.182;2023-02-26T03:23:10;1.20;99.90
17807;DHT22;9027;48.938;9.182;2023-02-26T03:24:49;1.20;99.90
17807;DHT22;9027;48.938;9.182;2023-02-26T03:26:26;1.20;99.90
17807;DHT22;9027;48.938;9.182;2023-02-26T03:28:05;1.20;99.90
17807;DHT22;9027;48.938;9.182;2023-02-26T03:29:46;1.10;99.90
17807;DHT22;9027;48.938;9.182;2023-02-26T03:31:27;1.10;99.90
17807;DHT22;9027;48.938;9.182;2023-02-26T03:33:02;1.10;99.90
17807;DHT22;9027;48.938;9.182;2023-02-26T03:34:40;1.00;99.90
17807;DHT22;9027;48.938;9.182;2023-02-26T03:36:18;1.00;99.90
17807;DHT22;9027;48.938;9.182;2023-02-26T03:38:01;1.00;99.90
17807;DHT22;9027;48.938;9.182;2023-02-26T03:39:39;1.00;99.90
17807;DHT22;9027;48.938;9.182;2023-02-26T03:41:16;1.00;99.90
17807;DHT22;9027;48.938;9.182;2023-02-26T03:42:54;1.00;99.90
17807;DHT22;9027;48.938;9.182;2023-02-26T03:44:32;1.00;99.90
17807;DHT22;9027;48.938;9.182;2023-02-26T03:46:10;1.00;99.90
17807;DHT22;9027;48.938;9.182;2023-02-26T03:47:47;0.90;99.90
17807;DHT22;9027;48.938;9.182;2023-02-26T03:49:23;0.90;99.90
17807;DHT22;9027;48.938;9.182;2023-02-26T03:51:00;0.90;99.90
17807;DHT22;9027;48.938;9.182;2023-02-26T03:52:58;0.90;99.90
17807;DHT22;9027;48.938;9.182;2023-02-26T03:54:47;0.90;99.90
17807;DHT22;9027;48.938;9.182;2023-02-26T03:56:42;0.90;99.90
17807;DHT22;9027;48.938;9.182;2023-02-26T03:58:35;0.80;99.90
17807;DHT22;9027;48.938;9.182;2023-02-26T04:00:21;0.80;99.90
17807;DHT22;9027;48.938;9.182;2023-02-26T04:01:58;0.80;99.90
17807;DHT22;9027;48.938;9.182;2023-02-26T04:03:35;0.80;99.90
17807;DHT22;9027;48.938;9.182;2023-02-26T04:05:13;0.70;99.90
17807;DHT22;9027;48.938;9.182;2023-02-26T04:06:48;0.80;99.90
17807;DHT22;9027;48.938;9.182;2023-02-26T04:08:23;0.70;99.90
17807;DHT22;9027;48.938;9.182;2023-02-26T04:09:56;0.70;99.90
17807;DHT22;9027;48.938;9.182;2023-02-26T04:11:31;0.70;99.90
17807;DHT22;9027;48.938;9.182;2023-02-26T04:13:04;0.70;99.90
17807;DHT22;9027;48.938;9.182;2023-02-26T04:14:36;0.70;99.90
17807;DHT22;9027;48.938;9.182;2023-02-26T04:16:08;0.70;99.90
17807;DHT22;9027;48.938;9.182;2023-02-26T04:17:40;0.70;99.90
17807;DHT22;9027;48.938;9.182;2023-02-26T04:19:12;0.70;99.90
17807;DHT22;9027;48.938;9.182;2023-02-26T04:20:45;0.70;99.90
17807;DHT22;9027;48.938;9.182;2023-02-26T04:22:18;0.70;99.90
17807;DHT22;9027;48.938;9.182;2023-02-26T04:23:50;0.70;99.90
17807;DHT22;9027;48.938;9.182;2023-02-26T04:25:21;0.60;99.90
17807;DHT22;9027;48.938;9.182;2023-02-26T04:26:54;0.60;99.90
17807;DHT22;9027;48.938;9.182;2023-02-26T04:28:26;0.60;99.90
17807;DHT22;9027;48.938;9.182;2023-02-26T04:29:57;0.60;99.90
17807;DHT22;9027;48.938;9.182;2023-02-26T04:31:29;0.60;99.90
17807;DHT22;9027;48.938;9.182;2023-02-26T04:33:01;0.50;99.90
17807;DHT22;9027;48.938;9.182;2023-02-26T04:34:33;0.40;99.90
17807;DHT22;9027;48.938;9.182;2023-02-26T04:36:05;0.40;99.90
17807;DHT22;9027;48.938;9.182;2023-02-26T04:37:38;0.30;99.90
17807;DHT22;9027;48.938;9.182;2023-02-26T04:39:10;0.30;99.90
17807;DHT22;9027;48.938;9.182;2023-02-26T04:40:42;0.10;99.90
17807;DHT22;9027;48.938;9.182;2023-02-26T04:42:16;0.00;99.90
17807;DHT22;9027;48.938;9.182;2023-02-26T04:43:48;0.00;99.90
17807;DHT22;9027;48.938;9.182;2023-02-26T04:45:28;-0.10;99.90
17807;DHT22;9027;48.938;9.182;2023-02-26T04:46:59;-0.10;99.90
17807;DHT22;9027;48.938;9.182;2023-02-26T04:48:32;-0.20;99.90
17807;DHT22;9027;48.938;9.182;2023-02-26T04:50:04;-0.10;99.90
17807;DHT22;9027;48.938;9.182;2023-02-26T04:51:36;-0.20;99.90
17807;DHT22;9027;48.938;9.182;2023-02-26T04:53:13;-0.20;99.90
17807;DHT22;9027;48.938;9.182;2023-02-26T04:54:44;-0.10;99.90
17807;DHT22;9027;48.938;9.182;2023-02-26T04:56:19;-0.10;99.90
17807;DHT22;9027;48.938;9.182;2023-02-26T04:57:51;0.00;99.90
17807;DHT22;9027;48.938;9.182;2023-02-26T04:59:27;0.10;99.90
17807;DHT22;9027;48.938;9.182;2023-02-26T05:01:00;0.20;99.90
17807;DHT22;9027;48.938;9.182;2023-02-26T05:02:31;0.20;99.90
17807;DHT22;9027;48.938;9.182;2023-02-26T05:04:03;0.20;99.90
17807;DHT22;9027;48.938;9.182;2023-02-26T05:05:36;0.10;99.90
17807;DHT22;9027;48.938;9.182;2023-02-26T05:07:08;0.10;99.90
17807;DHT22;9027;48.938;9.182;2023-02-26T05:08:41;0.20;99.90
17807;DHT22;9027;48.938;9.182;2023-02-26T05:10:12;0.10;99.90
17807;DHT22;9027;48.938;9.182;2023-02-26T05:11:44;0.10;99.90
17807;DHT22;9027;48.938;9.182;2023-02-26T05:13:17;0.20;99.90
17807;DHT22;9027;48.938;9.182;2023-02-26T05:14:49;0.20;99.90
17807;DHT22;9027;48.938;9.182;2023-02-26T05:16:21;0.30;99.90
17807;DHT22;9027;48.938;9.182;2023-02-26T05:17:53;0.30;99.90
17807;DHT22;9027;48.938;9.182;2023-02-26T05:19:25;0.30;99.90
17807;DHT22;9027;48.938;9.182;2023-02-26T05:20:57;0.30;99.90
17807;DHT22;9027;48.938;9.182;2023-02-26T05:22:29;0.30;99.90
17807;DHT22;9027;48.938;9.182;2023-02-26T05:24:02;0.40;99.90
17807;DHT22;9027;48.938;9.182;2023-02-26T05:25:34;0.40;99.90
17807;DHT22;9027;48.938;9.182;2023-02-26T05:27:06;0.30;99.90
17807;DHT22;9027;48.938;9.182;2023-02-26T05:28:41;0.30;99.90
17807;DHT22;9027;48.938;9.182;2023-02-26T05:30:16;0.30;99.90
17807;DHT22;9027;48.938;9.182;2023-02-26T05:31:48;0.30;99.90
17807;DHT22;9027;48.938;9.182;2023-02-26T05:33:19;0.30;99.90
17807;DHT22;9027;48.938;9.182;2023-02-26T05:34:50;0.20;99.90
17807;DHT22;9027;48.938;9.182;2023-02-26T05:36:22;0.20;99.90
17807;DHT22;9027;48.938;9.182;2023-02-26T05:37:54;0.10;99.90
17807;DHT22;9027;48.938;9.182;2023-02-26T05:39:27;0.00;99.90
17807;DHT22;9027;48.938;9.182;2023-02-26T05:41:00;0.00;99.90
17807;DHT22;9027;48.938;9.182;2023-02-26T05:42:32;-0.10;99.90
17807;DHT22;9027;48.938;9.182;2023-02-26T05:44:03;-0.20;99.90
17807;DHT22;9027;48.938;9.182;2023-02-26T05:45:37;-0.20;99.90
17807;DHT22;9027;48.938;9.182;2023-02-26T05:47:09;-0.10;99.90
17807;DHT22;9027;48.938;9.182;2023-02-26T05:48:41;-0.10;99.90
17807;DHT22;9027;48.938;9.182;2023-02-26T05:50:12;-0.10;99.90
17807;DHT22;9027;48.938;9.182;2023-02-26T05:51:44;0.00;99.90
17807;DHT22;9027;48.938;9.182;2023-02-26T05:53:16;0.00;99.90
17807;DHT22;9027;48.938;9.182;2023-02-26T05:54:49;0.10;99.90
17807;DHT22;9027;48.938;9.182;2023-02-26T05:56:21;0.00;99.90
17807;DHT22;9027;48.938;9.182;2023-02-26T05:57:53;0.00;99.90
17807;DHT22;9027;48.938;9.182;2023-02-26T05:59:25;0.00;99.90
17807;DHT22;9027;48.938;9.182;2023-02-26T06:00:57;0.00;99.90
17807;DHT22;9027;48.938;9.182;2023-02-26T06:02:28;0.10;99.90
17807;DHT22;9027;48.938;9.182;2023-02-26T06:04:00;0.10;99.90
17807;DHT22;9027;48.938;9.182;2023-02-26T06:05:32;0.10;99.90
17807;DHT22;9027;48.938;9.182;2023-02-26T06:07:05;0.10;99.90
17807;DHT22;9027;48.938;9.182;2023-02-26T06:08:36;0.10;99.90
17807;DHT22;9027;48.938;9.182;2023-02-26T06:10:11;0.00;99.90
17807;DHT22;9027;48.938;9.182;2023-02-26T06:11:43;0.00;99.90
17807;DHT22;9027;48.938;9.182;2023-02-26T06:13:14;-0.10;99.90
17807;DHT22;9027;48.938;9.182;2023-02-26T06:14:46;-0.20;99.90
17807;DHT22;9027;48.938;9.182;2023-02-26T06:16:18;-0.20;99.90
17807;DHT22;9027;48.938;9.182;2023-02-26T06:17:50;-0.20;99.90
17807;DHT22;9027;48.938;9.182;2023-02-26T06:19:22;-0.30;99.90
17807;DHT22;9027;48.938;9.182;2023-02-26T06:20:54;-0.40;99.90
17807;DHT22;9027;48.938;9.182;2023-02-26T06:22:26;-0.50;99.90
17807;DHT22;9027;48.938;9.182;2023-02-26T06:23:58;-0.40;99.90
17807;DHT22;9027;48.938;9.182;2023-02-26T06:25:31;-0.30;99.90
17807;DHT22;9027;48.938;9.182;2023-02-26T06:27:03;-0.30;99.90
17807;DHT22;9027;48.938;9.182;2023-02-26T06:28:35;-0.30;99.90
17807;DHT22;9027;48.938;9.182;2023-02-26T06:30:07;-0.30;99.90
17807;DHT22;9027;48.938;9.182;2023-02-26T06:31:39;-0.40;99.90
17807;DHT22;9027;48.938;9.182;2023-02-26T06:33:10;-0.30;99.90
17807;DHT22;9027;48.938;9.182;2023-02-26T06:34:42;-0.30;99.90
17807;DHT22;9027;48.938;9.182;2023-02-26T06:36:14;-0.20;99.90
17807;DHT22;9027;48.938;9.182;2023-02-26T06:37:47;-0.10;99.90
17807;DHT22;9027;48.938;9.182;2023-02-26T06:39:18;0.00;99.90
17807;DHT22;9027;48.938;9.182;2023-02-26T06:40:51;-0.10;99.90
17807;DHT22;9027;48.938;9.182;2023-02-26T06:42:22;0.00;99.90
17807;DHT22;9027;48.938;9.182;2023-02-26T06:43:53;0.00;99.90
17807;DHT22;9027;48.938;9.182;2023-02-26T06:45:25;0.00;99.90
17807;DHT22;9027;48.938;9.182;2023-02-26T06:46:57;0.10;99.90
17807;DHT22;9027;48.938;9.182;2023-02-26T06:48:29;0.20;99.90
17807;DHT22;9027;48.938;9.182;2023-02-26T06:50:01;0.30;99.90
17807;DHT22;9027;48.938;9.182;2023-02-26T06:51:33;0.20;99.90
17807;DHT22;9027;48.938;9.182;2023-02-26T06:53:05;0.20;99.90
17807;DHT22;9027;48.938;9.182;2023-02-26T06:54:37;0.10;99.90
17807;DHT22;9027;48.938;9.182;2023-02-26T06:56:10;-0.10;99.90
17807;DHT22;9027;48.938;9.182;2023-02-26T06:57:42;-0.10;99.90
17807;DHT22;9027;48.938;9.182;2023-02-26T06:59:14;-0.10;99.90
17807;DHT22;9027;48.938;9.182;2023-02-26T07:00:46;0.00;99.90
17807;DHT22;9027;48.938;9.182;2023-02-26T07:02:19;0.20;99.90
17807;DHT22;9027;48.938;9.182;2023-02-26T07:03:51;0.50;99.90
17807;DHT22;9027;48.938;9.182;2023-02-26T07:05:23;0.80;99.90
17807;DHT22;9027;48.938;9.182;2023-02-26T07:06:55;0.90;99.90
17807;DHT22;9027;48.938;9.182;2023-02-26T07:08:27;1.00;99.90
17807;DHT22;9027;48.938;9.182;2023-02-26T07:09:59;1.10;99.90
17807;DHT22;9027;48.938;9.182;2023-02-26T07:11:32;1.10;99.90
17807;DHT22;9027;48.938;9.182;2023-02-26T07:13:04;1.20;99.90
17807;DHT22;9027;48.938;9.182;2023-02-26T07:14:36;1.20;99.90
17807;DHT22;9027;48.938;9.182;2023-02-26T07:16:08;1.30;99.90
17807;DHT22;9027;48.938;9.182;2023-02-26T07:17:39;1.40;99.90
17807;DHT22;9027;48.938;9.182;2023-02-26T07:19:11;1.40;99.90
17807;DHT22;9027;48.938;9.182;2023-02-26T07:20:43;1.40;99.90
17807;DHT22;9027;48.938;9.182;2023-02-26T07:22:16;1.40;99.90
17807;DHT22;9027;48.938;9.182;2023-02-26T07:23:48;1.40;99.90
17807;DHT22;9027;48.938;9.182;2023-02-26T07:25:20;1.60;99.90
17807;DHT22;9027;48.938;9.182;2023-02-26T07:26:54;2.00;99.90
17807;DHT22;9027;48.938;9.182;2023-02-26T07:28:25;2.40;99.90
17807;DHT22;9027;48.938;9.182;2023-02-26T07:29:57;2.70;99.90
17807;DHT22;9027;48.938;9.182;2023-02-26T07:31:29;2.80;99.90
17807;DHT22;9027;48.938;9.182;2023-02-26T07:33:01;2.60;99.90
17807;DHT22;9027;48.938;9.182;2023-02-26T07:34:33;2.20;99.90
17807;DHT22;9027;48.938;9.182;2023-02-26T07:36:05;1.80;99.90
17807;DHT22;9027;48.938;9.182;2023-02-26T07:37:37;1.70;99.90
17807;DHT22;9027;48.938;9.182;2023-02-26T07:39:10;1.80;99.90
17807;DHT22;9027;48.938;9.182;2023-02-26T07:40:41;1.90;99.90
17807;DHT22;9027;48.938;9.182;2023-02-26T07:42:15;2.00;99.90
17807;DHT22;9027;48.938;9.182;2023-02-26T07:43:47;2.00;99.90
17807;DHT22;9027;48.938;9.182;2023-02-26T07:45:19;2.00;99.90
17807;DHT22;9027;48.938;9.182;2023-02-26T07:46:52;2.10;99.90
17807;DHT22;9027;48.938;9.182;2023-02-26T07:48:24;2.20;99.90
17807;DHT22;9027;48.938;9.182;2023-02-26T07:49:56;2.00;99.90
17807;DHT22;9027;48.938;9.182;2023-02-26T07:51:28;1.90;99.90
17807;DHT22;9027;48.938;9.182;2023-02-26T07:53:00;2.00;99.90
17807;DHT22;9027;48.938;9.182;2023-02-26T07:54:32;2.00;99.90
17807;DHT22;9027;48.938;9.182;2023-02-26T07:56:04;2.10;99.90
17807;DHT22;9027;48.938;9.182;2023-02-26T07:57:37;2.30;99.90
17807;DHT22;9027;48.938;9.182;2023-02-26T07:59:10;2.30;99.90
17807;DHT22;9027;48.938;9.182;2023-02-26T08:00:42;2.30;99.90
17807;DHT22;9027;48.938;9.182;2023-02-26T08:02:14;2.20;99.90
17807;DHT22;9027;48.938;9.182;2023-02-26T08:03:46;2.10;99.90
17807;DHT22;9027;48.938;9.182;2023-02-26T08:05:18;1.90;99.90
17807;DHT22;9027;48.938;9.182;2023-02-26T08:06:50;1.90;99.90
17807;DHT22;9027;48.938;9.182;2023-02-26T08:08:24;1.90;99.90
17807;DHT22;9027;48.938;9.182;2023-02-26T08:09:56;2.00;99.90
17807;DHT22;9027;48.938;9.182;2023-02-26T08:11:28;2.10;99.90
17807;DHT22;9027;48.938;9.182;2023-02-26T08:13:01;2.20;99.90
17807;DHT22;9027;48.938;9.182;2023-02-26T08:14:33;2.20;99.90
17807;DHT22;9027;48.938;9.182;2023-02-26T08:16:05;2.20;99.90
17807;DHT22;9027;48.938;9.182;2023-02-26T08:17:37;2.20;99.90
17807;DHT22;9027;48.938;9.182;2023-02-26T08:19:09;2.20;99.90
17807;DHT22;9027;48.938;9.182;2023-02-26T08:20:41;2.20;99.90
17807;DHT22;9027;48.938;9.182;2023-02-26T08:22:13;2.10;99.90
17807;DHT22;9027;48.938;9.182;2023-02-26T08:23:45;2.20;99.90
17807;DHT22;9027;48.938;9.182;2023-02-26T08:25:18;2.80;99.90
17807;DHT22;9027;48.938;9.182;2023-02-26T08:26:51;3.60;99.90
17807;DHT22;9027;48.938;9.182;2023-02-26T08:28:24;4.20;99.90
17807;DHT22;9027;48.938;9.182;2023-02-26T08:29:56;5.00;99.90
17807;DHT22;9027;48.938;9.182;2023-02-26T08:31:28;5.50;99.90
17807;DHT22;9027;48.938;9.182;2023-02-26T08:33:01;5.20;99.90
17807;DHT22;9027;48.938;9.182;2023-02-26T08:34:33;5.00;99.90
17807;DHT22;9027;48.938;9.182;2023-02-26T08:36:05;4.60;99.90
17807;DHT22;9027;48.938;9.182;2023-02-26T08:37:38;4.50;99.90
17807;DHT22;9027;48.938;9.182;2023-02-26T08:39:09;4.40;99.90
17807;DHT22;9027;48.938;9.182;2023-02-26T08:40:42;4.10;99.90
17807;DHT22;9027;48.938;9.182;2023-02-26T08:42:14;3.90;99.90
17807;DHT22;9027;48.938;9.182;2023-02-26T08:43:48;3.60;99.90
17807;DHT22;9027;48.938;9.182;2023-02-26T08:45:20;3.40;99.90
17807;DHT22;9027;48.938;9.182;2023-02-26T08:46:52;3.20;99.90
17807;DHT22;9027;48.938;9.182;2023-02-26T08:48:26;3.00;99.90
17807;DHT22;9027;48.938;9.182;2023-02-26T08:49:57;2.80;99.90
17807;DHT22;9027;48.938;9.182;2023-02-26T08:51:29;2.90;99.90
17807;DHT22;9027;48.938;9.182;2023-02-26T08:53:01;3.20;99.90
17807;DHT22;9027;48.938;9.182;2023-02-26T08:54:33;3.40;99.90
17807;DHT22;9027;48.938;9.182;2023-02-26T08:56:05;3.70;99.90
17807;DHT22;9027;48.938;9.182;2023-02-26T08:57:37;3.90;99.90
17807;DHT22;9027;48.938;9.182;2023-02-26T08:59:11;3.90;99.90
17807;DHT22;9027;48.938;9.182;2023-02-26T09:00:43;3.80;99.90
17807;DHT22;9027;48.938;9.182;2023-02-26T09:02:15;3.50;99.90
17807;DHT22;9027;48.938;9.182;2023-02-26T09:03:48;3.10;99.90
17807;DHT22;9027;48.938;9.182;2023-02-26T09:05:20;3.10;99.90
17807;DHT22;9027;48.938;9.182;2023-02-26T09:06:52;2.80;99.90
17807;DHT22;9027;48.938;9.182;2023-02-26T09:08:23;2.60;99.90
17807;DHT22;9027;48.938;9.182;2023-02-26T09:09:55;2.40;99.90
17807;DHT22;9027;48.938;9.182;2023-02-26T09:11:27;2.40;99.90
17807;DHT22;9027;48.938;9.182;2023-02-26T09:13:00;2.20;99.90
17807;DHT22;9027;48.938;9.182;2023-02-26T09:14:33;2.20;99.90
17807;DHT22;9027;48.938;9.182;2023-02-26T09:16:06;2.10;99.90
17807;DHT22;9027;48.938;9.182;2023-02-26T09:17:38;2.10;99.90
17807;DHT22;9027;48.938;9.182;2023-02-26T09:19:10;2.00;99.90
17807;DHT22;9027;48.938;9.182;2023-02-26T09:20:42;2.10;99.90
17807;DHT22;9027;48.938;9.182;2023-02-26T09:22:14;2.00;99.90
17807;DHT22;9027;48.938;9.182;2023-02-26T09:23:46;2.00;99.90
17807;DHT22;9027;48.938;9.182;2023-02-26T09:25:18;2.10;99.90
17807;DHT22;9027;48.938;9.182;2023-02-26T09:26:50;2.00;99.90
17807;DHT22;9027;48.938;9.182;2023-02-26T09:28:23;2.00;99.90
17807;DHT22;9027;48.938;9.182;2023-02-26T09:29:57;1.90;99.90
17807;DHT22;9027;48.938;9.182;2023-02-26T09:31:29;1.80;99.90
17807;DHT22;9027;48.938;9.182;2023-02-26T09:33:01;1.90;99.90
17807;DHT22;9027;48.938;9.182;2023-02-26T09:34:33;1.70;99.90
17807;DHT22;9027;48.938;9.182;2023-02-26T09:36:05;1.60;99.90
17807;DHT22;9027;48.938;9.182;2023-02-26T09:37:37;1.60;99.90
17807;DHT22;9027;48.938;9.182;2023-02-26T09:39:10;1.60;99.90
17807;DHT22;9027;48.938;9.182;2023-02-26T09:40:45;1.50;99.90
17807;DHT22;9027;48.938;9.182;2023-02-26T09:42:29;1.40;99.90
17807;DHT22;9027;48.938;9.182;2023-02-26T09:44:16;1.50;99.90
17807;DHT22;9027;48.938;9.182;2023-02-26T09:45:51;1.50;99.90
17807;DHT22;9027;48.938;9.182;2023-02-26T09:47:27;1.50;99.90
17807;DHT22;9027;48.938;9.182;2023-02-26T09:49:14;1.60;99.90
17807;DHT22;9027;48.938;9.182;2023-02-26T09:50:51;1.60;99.90
17807;DHT22;9027;48.938;9.182;2023-02-26T09:52:26;1.60;99.90
17807;DHT22;9027;48.938;9.182;2023-02-26T09:53:59;1.50;99.90
17807;DHT22;9027;48.938;9.182;2023-02-26T09:55:35;1.50;99.90
17807;DHT22;9027;48.938;9.182;2023-02-26T09:57:12;1.50;99.90
17807;DHT22;9027;48.938;9.182;2023-02-26T09:58:45;1.60;99.90
17807;DHT22;9027;48.938;9.182;2023-02-26T10:00:22;1.80;99.90
17807;DHT22;9027;48.938;9.182;2023-02-26T10:01:59;1.80;99.90
17807;DHT22;9027;48.938;9.182;2023-02-26T10:03:49;1.90;99.90
17807;DHT22;9027;48.938;9.182;2023-02-26T10:05:29;1.90;99.90
17807;DHT22;9027;48.938;9.182;2023-02-26T10:07:14;2.00;99.90
17807;DHT22;9027;48.938;9.182;2023-02-26T10:10:48;2.10;99.90
17807;DHT22;9027;48.938;9.182;2023-02-26T10:12:23;2.30;99.90
17807;DHT22;9027;48.938;9.182;2023-02-26T10:14:00;2.30;99.90
17807;DHT22;9027;48.938;9.182;2023-02-26T10:15:36;2.40;99.90
17807;DHT22;9027;48.938;9.182;2023-02-26T10:17:18;2.40;99.90
17807;DHT22;9027;48.938;9.182;2023-02-26T10:18:52;2.50;99.90
17807;DHT22;9027;48.938;9.182;2023-02-26T10:20:29;2.60;99.90
17807;DHT22;9027;48.938;9.182;2023-02-26T10:22:09;2.70;99.90
17807;DHT22;9027;48.938;9.182;2023-02-26T10:23:48;2.80;99.90